METAR Data
IDs: Format: Raw Decoded Include TAF

Data at: 1220 UTC 23 Sep 2018

KCTJ 231150Z AUTO 00000KT 10SM CLR 17/16 A3011 RMK AO2 T01700163
KCTJ 231130Z AUTO 00000KT 10SM CLR 17/16 A3010 RMK AO2 T01700164
KCTJ 231110Z AUTO 00000KT 10SM CLR 17/17 A3010 RMK AO2 T01720165
KCTJ 231050Z AUTO 00000KT 10SM CLR 17/17 A3010 RMK AO2 T01720166
KCTJ 231030Z AUTO 00000KT 10SM CLR 18/17 A3009 RMK AO2 T01750167
KCTJ 231010Z AUTO 00000KT 10SM CLR 18/17 A3009 RMK AO2 T01760170
KCTJ 230950Z AUTO 00000KT 10SM CLR 18/17 A3009 RMK AO2 T01760170
KCTJ 230930Z AUTO 00000KT 10SM CLR 18/17 A3009 RMK AO2 T01790172
KCTJ 230910Z AUTO 00000KT 10SM CLR 18/17 A3009 RMK AO2 T01790171
KCTJ 230855Z AUTO 00000KT 10SM CLR 18/17 A3009 RMK AO2 T01800172
KCTJ 230830Z AUTO 00000KT 10SM CLR 18/17 A3009 RMK AO2 T01810174
KCTJ 230810Z AUTO 00000KT 10SM CLR 18/18 A3009 RMK AO2 T01830176
KCTJ 230750Z AUTO 00000KT 10SM CLR 19/18 A3009 RMK AO2 T01850177
KCTJ 230730Z AUTO 00000KT 10SM CLR 19/18 A3009 RMK AO2 T01870180
KCTJ 230710Z AUTO 00000KT 10SM CLR 19/18 A3010 RMK AO2 T01890181
KCTJ 230650Z AUTO 00000KT 10SM CLR 19/18 A3010 RMK AO2 T01910184
KCTJ 230630Z AUTO 00000KT 10SM CLR 19/18 A3010 RMK AO2 T01910184
KCTJ 230610Z AUTO 00000KT 10SM CLR 19/18 A3010 RMK AO2 T01930184
KCTJ 230550Z AUTO 00000KT 10SM CLR 20/19 A3010 RMK AO2 T01950185
KCTJ 230530Z AUTO 00000KT 10SM CLR 19/18 A3011 RMK AO2 T01930184
KCTJ 230510Z AUTO 00000KT 10SM CLR 20/19 A3011 RMK AO2 T01960188
KCTJ 230450Z AUTO 00000KT 10SM CLR 20/19 A3012 RMK AO2 T01970189
KCTJ 230430Z AUTO 00000KT 10SM CLR 20/19 A3012 RMK AO2 T02010191
KCTJ 230410Z AUTO 00000KT 10SM CLR 20/19 A3012 RMK AO2 T02020192
KCTJ 230350Z AUTO 00000KT 10SM CLR 21/20 A3012 RMK AO2 T02050195
KCTJ 230330Z AUTO 00000KT 10SM CLR 21/20 A3013 RMK AO2 T02070195
KCTJ 230310Z AUTO 00000KT 10SM CLR 21/20 A3013 RMK AO2 T02100198
KCTJ 230250Z AUTO 00000KT 10SM CLR 21/20 A3012 RMK AO2 T02110198
KCTJ 230230Z AUTO 00000KT 10SM CLR 21/20 A3012 RMK AO2 T02140201
KCTJ 230210Z AUTO 00000KT 10SM CLR 22/20 A3012 RMK AO2 T02180201
KCTJ 230150Z AUTO 00000KT 10SM CLR 22/20 A3011 RMK AO2 T02200201
KCTJ 230130Z AUTO 00000KT 10SM CLR 23/20 A3011 RMK AO2 T02250204
KCTJ 230110Z AUTO 00000KT 10SM CLR 23/21 A3010 RMK AO2 T02290208
KCTJ 230050Z AUTO 00000KT 10SM CLR 23/21 A3010 RMK AO2 T02310210
KCTJ 230030Z AUTO 00000KT 10SM SCT120 24/21 A3009 RMK AO2 T02370211
KCTJ 230010Z AUTO 00000KT 10SM BKN120 24/21 A3008 RMK AO2 T02440210
KCTJ 222350Z AUTO 00000KT 10SM SCT120 26/21 A3008 RMK AO2 T02570205
KCTJ 222330Z AUTO 00000KT 10SM OVC110 27/21 A3008 RMK AO2 T02660206
KCTJ 222310Z AUTO 00000KT 10SM OVC100 28/20 A3008 RMK AO2 T02750204
KCTJ 222250Z AUTO 00000KT 10SM SCT100 28/20 A3007 RMK AO2 T02810201
KCTJ 222230Z AUTO 00000KT 10SM CLR 29/20 A3007 RMK AO2 T02880196
KCTJ 222210Z AUTO 16005KT 10SM CLR 30/19 A3006 RMK AO2 T02970193
KCTJ 222150Z AUTO 16008KT 10SM SCT055 BKN070 31/18 A3006 RMK AO2 T03070183
KCTJ 222130Z AUTO 15006KT 10SM CLR 31/18 A3006 RMK AO2 T03100182
KCTJ 222110Z AUTO 16005KT 10SM CLR 31/18 A3006 RMK AO2 T03110183
KCTJ 222050Z AUTO 00000KT 10SM CLR 31/18 A3006 RMK AO2 T03100177
KCTJ 222030Z AUTO 12004KT 10SM CLR 31/18 A3007 RMK AO2 T03100179
KCTJ 222010Z AUTO 00000KT 10SM CLR 31/18 A3008 RMK AO2 T03060180
KCTJ 221950Z AUTO 19003KT 10SM CLR 31/18 A3009 RMK AO2 T03080183
KCTJ 221935Z AUTO 21003KT 10SM CLR 31/18 A3010 RMK AO2 T03060183
KCTJ 221910Z AUTO 18004KT 10SM CLR 31/18 A3011 RMK AO2 T03050183
KCTJ 221850Z AUTO 19003KT 10SM CLR 31/19 A3012 RMK AO2 T03050186
KCTJ 221830Z AUTO 21004KT 10SM SCT045 SCT050 30/19 A3013 RMK AO2 T03000186
KCTJ 221810Z AUTO 14005KT 10SM SCT045 SCT050 30/19 A3014 RMK AO2 T03040188
KCTJ 221750Z AUTO 14003KT 10SM SCT043 30/19 A3014 RMK AO2 T02960192
KCTJ 221730Z AUTO 14006KT 10SM SCT039 30/20 A3015 RMK AO2 T02980195
KCTJ 221710Z AUTO 17006KT 10SM SCT039 29/20 A3016 RMK AO2 T02920195
KCTJ 221650Z AUTO 12003KT 10SM CLR 29/20 A3016 RMK AO2 T02890197
KCTJ 221630Z AUTO 00000KT 10SM SCT029 SCT047 28/20 A3017 RMK AO2 T02840199
KCTJ 221610Z AUTO 00000KT 10SM CLR 28/20 A3018 RMK AO2 T02810204
KCTJ 221550Z AUTO 00000KT 10SM CLR 27/21 A3018 RMK AO2 T02740210
KCTJ 221530Z AUTO 00000KT 10SM CLR 27/21 A3019 RMK AO2 T02670209
KCTJ 221510Z AUTO 00000KT 10SM CLR 26/21 A3019 RMK AO2 T02620209
KCTJ 221450Z AUTO 14003KT 10SM CLR 26/21 A3019 RMK AO2 T02580210
KCTJ 221430Z AUTO 00000KT 10SM CLR 25/21 A3018 RMK AO2 T02500209
KCTJ 221410Z AUTO 00000KT 10SM CLR 24/21 A3019 RMK AO2 T02420208
KCTJ 221350Z AUTO 00000KT 10SM CLR 24/21 A3019 RMK AO2 T02350207
KCTJ 221330Z AUTO 00000KT 10SM CLR 22/20 A3018 RMK AO2 T02240202
KCTJ 221310Z AUTO 00000KT 10SM CLR 22/20 A3018 RMK AO2 T02180199
KCTJ 221250Z AUTO 00000KT 10SM CLR 21/19 A3018 RMK AO2 T02080193
KCTJ 221230Z AUTO 00000KT 10SM CLR 19/18 A3017 RMK AO2 T01920181
KCTJ 221210Z AUTO 00000KT 10SM CLR 18/18 A3017 RMK AO2 T01830176
KCTJ 221150Z AUTO 00000KT 10SM CLR 18/17 A3017 RMK AO2 T01780172
KCTJ 221130Z AUTO 00000KT 10SM CLR 18/17 A3017 RMK AO2 T01780172
KCTJ 221110Z AUTO 00000KT 10SM CLR 18/17 A3016 RMK AO2 T01800172
KCTJ 221050Z AUTO 00000KT 10SM CLR 18/18 A3016 RMK AO2 T01810175
KCTJ 221030Z AUTO 00000KT 10SM CLR 18/18 A3016 RMK AO2 T01840178
KCTJ 221010Z AUTO 00000KT 10SM CLR 18/18 A3016 RMK AO2 T01840177
KCTJ 220950Z AUTO 00000KT 10SM CLR 19/18 A3016 RMK AO2 T01860179
KCTJ 220930Z AUTO 00000KT 10SM CLR 19/18 A3016 RMK AO2 T01890181
KCTJ 220910Z AUTO 00000KT 10SM CLR 19/18 A3016 RMK AO2 T01870180
KCTJ 220850Z AUTO 00000KT 10SM SCT120 19/18 A3015 RMK AO2 T01880180
KCTJ 220830Z AUTO 00000KT 10SM BKN120 19/18 A3015 RMK AO2 T01890182
KCTJ 220810Z AUTO 00000KT 10SM BKN120 19/18 A3015 RMK AO2 T01860179
KCTJ 220750Z AUTO 00000KT 10SM CLR 19/18 A3015 RMK AO2 T01930182
KCTJ 220730Z AUTO 00000KT 10SM CLR 19/18 A3016 RMK AO2 T01940183
KCTJ 220710Z AUTO 00000KT 10SM CLR 19/18 A3017 RMK AO2 T01920182
KCTJ 220650Z AUTO 00000KT 10SM CLR 19/18 A3017 RMK AO2 T01910182
KCTJ 220630Z AUTO 00000KT 10SM CLR 19/18 A3017 RMK AO2 T01940183
KCTJ 220610Z AUTO 00000KT 10SM CLR 19/18 A3018 RMK AO2 T01940183
KCTJ 220550Z AUTO 00000KT 10SM CLR 20/19 A3018 RMK AO2 T01950185
KCTJ 220530Z AUTO 00000KT 10SM SCT050 20/19 A3017 RMK AO2 T01960185
KCTJ 220510Z AUTO 00000KT 10SM BKN050 20/19 A3018 RMK AO2 T01970186
KCTJ 220450Z AUTO 00000KT 10SM SCT050 20/19 A3019 RMK AO2 T01990186
KCTJ 220430Z AUTO 00000KT 10SM CLR 20/19 A3018 RMK AO2 T02040186
KCTJ 220410Z AUTO 00000KT 10SM CLR 20/19 A3019 RMK AO2 T02020186
KCTJ 220350Z AUTO 00000KT 10SM CLR 20/19 A3018 RMK AO2 T02010187
KCTJ 220330Z AUTO 00000KT 10SM CLR 20/19 A3018 RMK AO2 T02040190
KCTJ 220310Z AUTO 00000KT 10SM CLR 21/19 A3019 RMK AO2 T02050190
KCTJ 220250Z AUTO 00000KT 10SM CLR 20/19 A3019 RMK AO2 T02020190
KCTJ 220230Z AUTO 00000KT 10SM CLR 21/19 A3018 RMK AO2 T02080191
KCTJ 220210Z AUTO 00000KT 10SM CLR 21/19 A3018 RMK AO2 T02080193
KCTJ 220150Z AUTO 00000KT 10SM CLR 21/19 A3018 RMK AO2 T02100193
KCTJ 220130Z AUTO 00000KT 10SM CLR 21/19 A3017 RMK AO2 T02130194
KCTJ 220110Z AUTO 00000KT 10SM CLR 22/20 A3017 RMK AO2 T02180196
KCTJ 220050Z AUTO 00000KT 10SM CLR 22/19 A3016 RMK AO2 T02210193
KCTJ 220030Z AUTO 00000KT 10SM CLR 23/20 A3015 RMK AO2 T02290196